createdAt,value
2022-12-05T00:00:39.864Z,67.00
2022-12-05T00:03:12.605Z,67.36
2022-12-05T00:05:45.358Z,67.22
2022-12-05T00:08:18.417Z,67.63
2022-12-05T00:10:52.929Z,67.08
2022-12-05T00:13:25.871Z,67.67
2022-12-05T00:15:58.704Z,67.24
2022-12-05T00:18:31.426Z,67.84
2022-12-05T00:21:05.051Z,66.94
2022-12-05T00:23:37.780Z,67.33
2022-12-05T00:26:12.925Z,67.87
2022-12-05T00:28:45.907Z,67.22
2022-12-05T00:31:20.491Z,67.53
2022-12-05T00:33:54.373Z,67.60
2022-12-05T00:36:29.112Z,67.38
2022-12-05T00:39:03.931Z,67.36
2022-12-05T00:41:38.288Z,67.54
2022-12-05T00:44:12.952Z,67.35
2022-12-05T00:46:45.745Z,67.96
2022-12-05T00:49:18.493Z,67.48
2022-12-05T00:51:51.342Z,67.76
2022-12-05T00:54:24.160Z,68.02
2022-12-05T00:56:58.527Z,67.96
2022-12-05T00:59:31.273Z,67.43
2022-12-05T01:02:04.202Z,68.31
2022-12-05T01:04:37.684Z,67.89
2022-12-05T01:07:11.210Z,68.23
2022-12-05T01:09:43.958Z,68.03
2022-12-05T01:12:18.288Z,67.73
2022-12-05T01:14:51.068Z,68.54
2022-12-05T01:17:23.994Z,67.65
2022-12-05T01:19:57.306Z,68.31
2022-12-05T01:22:30.243Z,68.52
2022-12-05T01:25:03.081Z,68.16
2022-12-05T01:27:37.602Z,67.98
2022-12-05T01:30:11.166Z,68.19
2022-12-05T01:32:44.201Z,68.14
2022-12-05T01:35:17.327Z,68.25
2022-12-05T01:37:50.317Z,68.30
2022-12-05T01:40:23.264Z,68.51
2022-12-05T01:42:58.501Z,68.65
2022-12-05T01:45:34.766Z,68.54
2022-12-05T01:48:11.723Z,69.01
2022-12-05T01:50:45.293Z,68.34
2022-12-05T01:53:19.242Z,68.49
2022-12-05T01:55:52.548Z,68.77
2022-12-05T01:58:33.321Z,68.73
2022-12-05T02:01:06.375Z,68.70
2022-12-05T02:03:39.969Z,68.55
2022-12-05T02:06:14.690Z,68.93
2022-12-05T02:08:48.462Z,68.84
2022-12-05T02:11:22.574Z,68.93
2022-12-05T02:14:13.636Z,68.47
2022-12-05T02:16:55.079Z,68.83
2022-12-05T02:19:57.035Z,68.26
2022-12-05T02:22:59.856Z,68.28
2022-12-05T02:26:01.904Z,68.16
2022-12-05T02:28:52.338Z,68.38
2022-12-05T02:31:35.226Z,68.54
2022-12-05T02:34:14.318Z,68.84
2022-12-05T02:36:51.999Z,68.14
2022-12-05T02:39:32.145Z,67.83
2022-12-05T02:42:11.258Z,68.11
2022-12-05T02:44:48.964Z,68.10
2022-12-05T02:47:27.470Z,68.64
2022-12-05T02:50:00.750Z,68.15
2022-12-05T02:52:35.554Z,68.32
2022-12-05T02:55:10.135Z,68.61
2022-12-05T02:57:46.556Z,68.29
2022-12-05T03:00:20.053Z,68.27
2022-12-05T03:02:59.427Z,68.24
2022-12-05T03:05:40.028Z,67.98
2022-12-05T03:08:19.643Z,68.04
2022-12-05T03:10:54.545Z,68.00
2022-12-05T03:13:30.452Z,68.06
2022-12-05T03:16:08.980Z,67.83
2022-12-05T03:18:48.397Z,68.24
2022-12-05T03:21:31.018Z,67.90
2022-12-05T03:24:06.721Z,68.45
2022-12-05T03:26:49.622Z,67.99
2022-12-05T03:29:30.159Z,68.21
2022-12-05T03:32:09.425Z,68.22
2022-12-05T03:34:56.450Z,68.08
2022-12-05T03:37:36.175Z,67.97
2022-12-05T03:40:16.302Z,67.89
2022-12-05T03:42:58.758Z,68.14
2022-12-05T03:45:39.423Z,68.52
2022-12-05T03:48:19.990Z,67.97
2022-12-05T03:50:55.282Z,68.26
2022-12-05T03:53:32.915Z,68.46
2022-12-05T03:56:09.751Z,68.35
2022-12-05T03:58:47.525Z,68.42
2022-12-05T04:01:23.580Z,68.61
2022-12-05T04:03:59.848Z,68.23
2022-12-05T04:06:37.591Z,68.02
2022-12-05T04:09:17.038Z,68.39
2022-12-05T04:11:56.164Z,68.23
2022-12-05T04:14:34.064Z,68.18
2022-12-05T04:17:09.344Z,68.26
2022-12-05T04:20:04.655Z,68.12
2022-12-05T04:22:40.109Z,68.02
2022-12-05T04:25:39.555Z,68.03
2022-12-05T04:28:26.965Z,67.98
2022-12-05T04:31:06.466Z,67.97
2022-12-05T04:33:43.238Z,67.94
2022-12-05T04:36:20.468Z,68.03
2022-12-05T04:39:00.216Z,68.05
2022-12-05T04:41:38.077Z,68.14
2022-12-05T04:44:13.788Z,67.56
2022-12-05T04:46:49.499Z,67.84
2022-12-05T04:49:28.187Z,67.53
2022-12-05T04:52:05.944Z,67.43
2022-12-05T04:54:44.431Z,67.81
2022-12-05T04:57:20.396Z,67.60
2022-12-05T04:59:53.394Z,67.81
2022-12-05T05:02:34.446Z,67.61
2022-12-05T05:05:14.124Z,67.38
2022-12-05T05:07:49.151Z,67.62
2022-12-05T05:10:32.182Z,67.11
2022-12-05T05:13:06.007Z,67.74
2022-12-05T05:15:38.814Z,67.55
2022-12-05T05:18:11.612Z,67.95
2022-12-05T05:20:44.415Z,67.62
2022-12-05T05:23:17.265Z,67.82
2022-12-05T05:25:55.112Z,67.67
2022-12-05T05:28:27.868Z,67.70
2022-12-05T05:31:03.446Z,67.47
2022-12-05T05:33:36.464Z,67.91
2022-12-05T05:36:11.929Z,67.49
2022-12-05T05:38:47.459Z,67.78
2022-12-05T05:41:23.966Z,67.65
2022-12-05T05:43:57.356Z,68.39
2022-12-05T05:46:32.296Z,68.40
2022-12-05T05:49:06.386Z,68.38
2022-12-05T05:51:39.251Z,68.28
2022-12-05T05:54:11.979Z,68.47
2022-12-05T05:56:46.174Z,68.32
2022-12-05T05:59:18.920Z,68.38
2022-12-05T06:01:51.742Z,68.37
2022-12-05T06:04:24.629Z,68.54
2022-12-05T06:06:57.475Z,68.31
2022-12-05T06:09:30.262Z,68.24
2022-12-05T06:12:04.778Z,68.12
2022-12-05T06:14:37.547Z,68.06
2022-12-05T06:17:10.329Z,68.11
2022-12-05T06:19:43.071Z,67.90
2022-12-05T06:22:15.821Z,68.06
2022-12-05T06:24:48.594Z,68.49
2022-12-05T06:27:22.837Z,68.28
2022-12-05T06:29:55.849Z,68.17
2022-12-05T06:32:29.860Z,68.32
2022-12-05T06:35:07.917Z,68.32
2022-12-05T06:37:40.787Z,68.04
2022-12-05T06:40:14.148Z,68.08
2022-12-05T06:42:48.365Z,68.37
2022-12-05T06:45:21.045Z,68.71
2022-12-05T06:47:54.163Z,68.34
2022-12-05T06:50:27.008Z,68.17
2022-12-05T06:52:59.764Z,68.26
2022-12-05T06:55:32.511Z,67.91
2022-12-05T06:58:06.694Z,68.05
2022-12-05T07:01:03.063Z,67.76
2022-12-05T07:03:35.909Z,67.76
2022-12-05T07:06:09.422Z,67.60
2022-12-05T07:08:43.663Z,67.92
2022-12-05T07:11:16.421Z,67.53
2022-12-05T07:13:50.589Z,67.36
2022-12-05T07:16:23.435Z,67.52
2022-12-05T07:18:56.378Z,67.50
2022-12-05T07:21:29.290Z,67.34
2022-12-05T07:24:02.126Z,67.33
2022-12-05T07:26:35.016Z,67.31
2022-12-05T07:29:09.346Z,67.75
2022-12-05T07:31:42.363Z,67.56
2022-12-05T07:34:15.307Z,67.70
2022-12-05T07:36:48.344Z,67.84
2022-12-05T07:39:21.599Z,68.05
2022-12-05T07:41:54.446Z,68.07
2022-12-05T07:44:28.736Z,68.01
2022-12-05T07:47:01.669Z,68.26
2022-12-05T07:49:34.528Z,68.22
2022-12-05T07:52:07.399Z,67.87
2022-12-05T07:54:40.122Z,67.67
2022-12-05T07:57:12.897Z,68.17
2022-12-05T07:59:47.086Z,68.05
2022-12-05T08:02:20.305Z,68.44
2022-12-05T08:04:53.184Z,67.94
2022-12-05T08:07:25.960Z,68.08
2022-12-05T08:09:59.028Z,67.90
2022-12-05T08:12:32.217Z,68.12
2022-12-05T08:15:07.980Z,68.01
2022-12-05T08:17:40.847Z,67.96
2022-12-05T08:20:14.739Z,68.21
2022-12-05T08:22:47.771Z,68.65
2022-12-05T08:25:20.663Z,68.67
2022-12-05T08:27:53.389Z,68.60
2022-12-05T08:30:27.575Z,68.25
2022-12-05T08:33:00.488Z,68.33
2022-12-05T08:35:33.724Z,68.12
2022-12-05T08:38:06.796Z,67.97
2022-12-05T08:40:39.548Z,68.10
2022-12-05T08:43:12.311Z,68.20
2022-12-05T08:45:52.138Z,68.17
2022-12-05T08:48:29.296Z,68.16
2022-12-05T08:51:07.333Z,68.05
2022-12-05T08:53:44.432Z,68.08
2022-12-05T08:56:20.841Z,68.00
2022-12-05T08:59:04.728Z,68.19
2022-12-05T09:01:40.686Z,68.50
2022-12-05T09:04:13.611Z,68.48
2022-12-05T09:06:46.570Z,68.50
2022-12-05T09:09:19.445Z,68.61
2022-12-05T09:11:52.633Z,68.75
2022-12-05T09:14:25.512Z,68.79
2022-12-05T09:17:01.073Z,68.54
2022-12-05T09:19:33.904Z,68.28
2022-12-05T09:22:07.003Z,67.65
2022-12-05T09:24:39.822Z,67.67
2022-12-05T09:27:12.626Z,67.90
2022-12-05T09:29:45.511Z,68.10
2022-12-05T09:32:19.821Z,67.96
2022-12-05T09:34:52.831Z,67.68
2022-12-05T09:37:40.907Z,67.57
2022-12-05T09:40:18.063Z,67.22
2022-12-05T09:43:04.292Z,66.98
2022-12-05T09:45:39.039Z,67.08
2022-12-05T09:48:16.654Z,67.05
2022-12-05T09:51:10.136Z,67.28
2022-12-05T09:53:44.811Z,67.38
2022-12-05T09:56:25.487Z,67.00
2022-12-05T09:59:00.809Z,67.45
2022-12-05T10:01:42.081Z,67.03
2022-12-05T10:05:00.163Z,67.31
2022-12-05T10:07:39.057Z,66.92
2022-12-05T10:10:30.097Z,66.72
2022-12-05T10:13:22.845Z,66.39
2022-12-05T10:16:01.609Z,66.70
2022-12-05T10:18:40.504Z,66.53
2022-12-05T10:21:20.970Z,66.51
2022-12-05T10:23:59.433Z,65.94
2022-12-05T10:26:37.260Z,66.36
2022-12-05T10:29:21.625Z,65.83
2022-12-05T10:32:02.564Z,65.67
2022-12-05T10:34:39.563Z,65.98
2022-12-05T10:37:17.808Z,65.52
2022-12-05T10:39:52.123Z,65.92
2022-12-05T10:42:30.553Z,64.88
2022-12-05T10:45:06.993Z,65.24
2022-12-05T10:47:39.851Z,65.40
2022-12-05T10:50:23.571Z,64.53
2022-12-05T10:53:01.695Z,64.68
2022-12-05T10:55:54.736Z,64.65
2022-12-05T10:58:34.390Z,65.13
2022-12-05T11:01:11.361Z,64.96
2022-12-05T11:03:45.021Z,64.94
2022-12-05T11:06:20.025Z,65.02
2022-12-05T11:09:05.399Z,64.61
2022-12-05T11:11:38.517Z,64.63
2022-12-05T11:14:23.490Z,64.69
2022-12-05T11:16:59.396Z,64.51
2022-12-05T11:19:34.549Z,64.98
2022-12-05T11:22:08.030Z,65.25
2022-12-05T11:24:42.241Z,64.94
2022-12-05T11:27:29.769Z,64.30
2022-12-05T11:30:05.938Z,64.16
2022-12-05T11:32:38.755Z,64.24
2022-12-05T11:35:24.276Z,64.00
2022-12-05T11:38:01.460Z,63.97
2022-12-05T11:40:40.644Z,64.19
2022-12-05T11:43:37.975Z,63.75
2022-12-05T11:46:26.855Z,63.88
2022-12-05T11:49:15.481Z,63.55
2022-12-05T11:51:56.627Z,64.07
2022-12-05T11:58:01.057Z,63.54
2022-12-05T12:00:40.461Z,63.89
2022-12-05T12:03:51.244Z,63.45
2022-12-05T12:06:33.101Z,63.66
2022-12-05T12:09:14.240Z,64.77
2022-12-05T12:11:55.602Z,64.19
2022-12-05T12:14:38.809Z,63.38
2022-12-05T12:17:22.144Z,63.95
2022-12-05T12:20:16.025Z,63.36
2022-12-05T12:23:02.722Z,63.12
2022-12-05T12:25:44.053Z,63.36
2022-12-05T12:28:32.345Z,63.10
2022-12-05T12:31:30.241Z,62.56
2022-12-05T12:34:13.234Z,63.26
2022-12-05T12:36:49.883Z,62.33
2022-12-05T12:39:36.044Z,62.59
2022-12-05T12:42:21.796Z,62.03
2022-12-05T12:45:33.464Z,62.71
2022-12-05T12:48:21.398Z,62.14
2022-12-05T12:50:55.890Z,62.79
2022-12-05T12:53:57.377Z,62.88
2022-12-05T12:56:39.485Z,62.63
2022-12-05T12:59:31.035Z,62.21
2022-12-05T13:02:12.985Z,63.17
2022-12-05T13:04:50.483Z,64.46
2022-12-05T13:07:31.378Z,62.61
2022-12-05T13:10:13.831Z,63.21
2022-12-05T13:12:47.847Z,62.90
2022-12-05T13:15:29.442Z,62.11
2022-12-05T13:18:04.561Z,62.54
2022-12-05T13:20:40.641Z,62.85
2022-12-05T13:23:16.966Z,62.99
2022-12-05T13:25:50.870Z,63.04
2022-12-05T13:28:42.049Z,62.15
2022-12-05T13:31:17.166Z,62.87
2022-12-05T13:33:52.336Z,62.60
2022-12-05T13:36:44.254Z,63.19
2022-12-05T13:39:40.105Z,63.33
2022-12-05T13:42:24.467Z,62.79
2022-12-05T13:45:06.797Z,63.24
2022-12-05T13:47:53.169Z,63.63
2022-12-05T13:50:35.444Z,62.83
2022-12-05T13:53:28.492Z,62.46
2022-12-05T13:56:03.690Z,63.03
2022-12-05T13:58:54.729Z,62.64
2022-12-05T14:01:55.746Z,62.39
2022-12-05T14:04:54.179Z,62.03
2022-12-05T14:07:42.012Z,61.91
2022-12-05T14:10:18.063Z,62.16
2022-12-05T14:12:53.939Z,62.18
2022-12-05T14:15:35.436Z,61.78
2022-12-05T14:18:15.790Z,62.06
2022-12-05T14:20:57.346Z,62.33
2022-12-05T14:23:52.169Z,61.89
2022-12-05T14:26:48.928Z,62.51
2022-12-05T14:29:39.892Z,62.09
2022-12-05T14:32:23.799Z,62.35
2022-12-05T14:34:59.953Z,62.87
2022-12-05T14:37:37.530Z,62.49
2022-12-05T14:40:21.989Z,62.14
2022-12-05T14:42:59.633Z,62.62
2022-12-05T14:45:36.443Z,62.72
2022-12-05T14:48:28.930Z,62.00
2022-12-05T14:51:02.573Z,62.90
2022-12-05T14:53:38.865Z,62.86
2022-12-05T14:56:22.459Z,62.58
2022-12-05T14:59:01.580Z,62.86
2022-12-05T15:01:43.264Z,62.98
2022-12-05T15:04:21.825Z,63.22
2022-12-05T15:06:57.916Z,63.33
2022-12-05T15:09:42.676Z,63.30
2022-12-05T15:12:19.321Z,63.20
2022-12-05T15:15:04.366Z,63.16
2022-12-05T15:17:47.298Z,63.20
2022-12-05T15:20:33.213Z,63.08
2022-12-05T15:23:42.663Z,63.27
2022-12-05T15:26:46.183Z,63.71
2022-12-05T15:29:19.237Z,63.38
2022-12-05T15:31:57.213Z,63.50
2022-12-05T15:34:33.486Z,63.80
2022-12-05T15:37:14.450Z,63.94
2022-12-05T15:39:58.790Z,63.76
2022-12-05T15:42:36.684Z,64.20
2022-12-05T15:45:23.745Z,64.04
2022-12-05T15:48:13.482Z,64.55
2022-12-05T15:50:51.748Z,64.23
2022-12-05T15:53:32.557Z,64.68
2022-12-05T15:56:10.550Z,64.59
2022-12-05T15:58:47.538Z,64.53
2022-12-05T16:01:22.900Z,64.65
2022-12-05T16:04:01.921Z,64.75
2022-12-05T16:06:40.350Z,64.82
2022-12-05T16:09:18.649Z,64.82
2022-12-05T16:11:54.107Z,65.17
2022-12-05T16:14:58.317Z,65.18
2022-12-05T16:17:25.210Z,65.15
2022-12-05T16:20:13.818Z,65.07
2022-12-05T16:22:49.748Z,65.34
2022-12-05T16:25:26.136Z,65.27
2022-12-05T16:28:02.752Z,65.39
2022-12-05T16:30:37.026Z,65.63
2022-12-05T16:33:16.520Z,65.64
2022-12-05T16:35:51.851Z,65.47
2022-12-05T16:38:26.921Z,65.57
2022-12-05T16:41:02.120Z,65.28
2022-12-05T16:43:45.232Z,65.46
2022-12-05T16:46:43.786Z,65.37
2022-12-05T16:49:41.314Z,65.57
2022-12-05T16:52:21.370Z,65.68
2022-12-05T16:54:55.009Z,65.46
2022-12-05T16:57:27.916Z,65.72
2022-12-05T17:00:01.630Z,65.41
2022-12-05T17:02:34.555Z,65.85
2022-12-05T17:05:14.267Z,65.45
2022-12-05T17:07:48.903Z,65.98
2022-12-05T17:10:21.793Z,65.41
2022-12-05T17:12:54.864Z,65.72
2022-12-05T17:15:28.200Z,65.81
2022-12-05T17:18:02.245Z,65.93
2022-12-05T17:20:36.413Z,65.70
2022-12-05T17:23:14.889Z,66.22
2022-12-05T17:25:51.336Z,66.23
2022-12-05T17:28:25.187Z,65.91
2022-12-05T17:30:58.390Z,66.39
2022-12-05T17:33:31.611Z,65.86
2022-12-05T17:36:04.807Z,66.57
2022-12-05T17:38:39.154Z,66.38
2022-12-05T17:41:17.754Z,66.32
2022-12-05T17:43:51.443Z,66.21
2022-12-05T17:46:24.877Z,66.54
2022-12-05T17:48:58.032Z,66.78
2022-12-05T17:51:31.324Z,66.97
2022-12-05T17:54:06.417Z,67.10
2022-12-05T17:56:39.308Z,66.86
2022-12-05T17:59:12.188Z,66.84
2022-12-05T18:01:44.936Z,66.40
2022-12-05T18:04:22.962Z,66.16
2022-12-05T18:06:56.239Z,65.77
2022-12-05T18:09:31.219Z,65.90
2022-12-05T18:12:04.600Z,65.70
2022-12-05T18:14:37.578Z,65.59
2022-12-05T18:17:10.918Z,65.61
2022-12-05T18:19:44.320Z,65.90
2022-12-05T18:22:20.264Z,65.41
2022-12-05T18:24:57.444Z,65.90
2022-12-05T18:27:32.079Z,65.34
2022-12-05T18:30:06.183Z,65.26
2022-12-05T18:32:39.001Z,66.11
2022-12-05T18:35:13.214Z,66.12
2022-12-05T18:37:46.275Z,66.12
2022-12-05T18:40:20.829Z,66.70
2022-12-05T18:42:53.836Z,66.98
2022-12-05T18:45:27.152Z,67.52
2022-12-05T18:48:16.359Z,67.01
2022-12-05T18:50:53.873Z,67.18
2022-12-05T18:53:27.048Z,67.62
2022-12-05T18:56:24.716Z,67.67
2022-12-05T18:59:02.183Z,67.71
2022-12-05T19:01:37.412Z,67.89
2022-12-05T19:04:13.482Z,67.69
2022-12-05T19:06:50.768Z,66.83
2022-12-05T19:09:25.961Z,66.54
2022-12-05T19:12:00.988Z,66.57
2022-12-05T19:14:35.215Z,66.31
2022-12-05T19:17:08.407Z,65.87
2022-12-05T19:19:41.598Z,66.00
2022-12-05T19:22:14.826Z,66.03
2022-12-05T19:24:47.800Z,65.92
2022-12-05T19:27:22.016Z,65.96
2022-12-05T19:29:55.381Z,65.45
2022-12-05T19:32:28.357Z,65.77
2022-12-05T19:35:01.321Z,66.01
2022-12-05T19:37:34.366Z,66.03
2022-12-05T19:40:08.940Z,66.12
2022-12-05T19:42:43.262Z,65.48
2022-12-05T19:45:18.030Z,66.06
2022-12-05T19:47:52.682Z,65.86
2022-12-05T19:50:25.901Z,66.41
2022-12-05T19:52:59.166Z,66.21
2022-12-05T19:55:32.374Z,66.52
2022-12-05T19:58:07.519Z,66.41
2022-12-05T20:00:41.485Z,66.94
2022-12-05T20:03:14.424Z,66.80
2022-12-05T20:05:57.164Z,67.30
2022-12-05T20:08:30.673Z,67.54
2022-12-05T20:11:08.334Z,67.40
2022-12-05T20:13:47.664Z,67.42
2022-12-05T20:16:23.030Z,67.29
2022-12-05T20:18:58.069Z,67.13
2022-12-05T20:21:33.718Z,67.83
2022-12-05T20:24:07.672Z,67.87
2022-12-05T20:26:42.594Z,67.58
2022-12-05T20:29:17.136Z,67.54
2022-12-05T20:31:56.503Z,67.51
2022-12-05T20:34:29.509Z,67.13
2022-12-05T20:37:02.392Z,67.64
2022-12-05T20:39:35.695Z,67.46
2022-12-05T20:42:08.574Z,67.64
2022-12-05T20:44:42.801Z,68.23
2022-12-05T20:47:15.760Z,68.23
2022-12-05T20:49:48.604Z,68.37
2022-12-05T20:52:21.713Z,68.43
2022-12-05T20:54:57.107Z,68.29
2022-12-05T20:57:29.935Z,68.57
2022-12-05T21:00:05.404Z,68.23
2022-12-05T21:02:38.280Z,68.80
2022-12-05T21:05:13.134Z,68.34
2022-12-05T21:07:46.116Z,68.41
2022-12-05T21:10:19.259Z,67.58
2022-12-05T21:12:54.195Z,67.41
2022-12-05T21:15:28.568Z,66.72
2022-12-05T21:18:01.619Z,66.39
2022-12-05T21:20:40.463Z,66.55
2022-12-05T21:23:15.314Z,66.63
2022-12-05T21:25:48.169Z,66.63
2022-12-05T21:28:21.329Z,66.44
2022-12-05T21:30:55.840Z,66.10
2022-12-05T21:33:29.051Z,66.45
2022-12-05T21:36:02.146Z,66.48
2022-12-05T21:38:35.082Z,66.77
2022-12-05T21:41:08.240Z,66.09
2022-12-05T21:43:41.275Z,66.46
2022-12-05T21:46:16.068Z,66.89
2022-12-05T21:48:48.913Z,66.77
2022-12-05T21:51:22.815Z,66.85
2022-12-05T21:53:56.906Z,66.92
2022-12-05T21:56:31.230Z,66.92
2022-12-05T21:59:05.722Z,66.70
2022-12-05T22:01:40.195Z,67.02
2022-12-05T22:04:13.284Z,66.94
2022-12-05T22:06:46.195Z,67.29
2022-12-05T22:09:19.089Z,67.20
2022-12-05T22:11:52.271Z,67.63
2022-12-05T22:14:27.489Z,68.34
2022-12-05T22:17:01.946Z,68.40
2022-12-05T22:19:35.336Z,68.82
2022-12-05T22:22:08.469Z,68.75
2022-12-05T22:24:41.349Z,68.49
2022-12-05T22:27:14.468Z,68.65
2022-12-05T22:29:52.617Z,68.69
2022-12-05T22:32:27.465Z,68.70
2022-12-05T22:35:03.775Z,68.91
2022-12-05T22:37:37.623Z,69.48
2022-12-05T22:40:11.126Z,69.37
2022-12-05T22:42:44.173Z,69.87
2022-12-05T22:45:17.323Z,69.59
2022-12-05T22:47:51.857Z,69.57
2022-12-05T22:50:26.148Z,68.66
2022-12-05T22:52:58.962Z,68.68
2022-12-05T22:55:32.594Z,68.30
2022-12-05T22:58:05.894Z,68.36
2022-12-05T23:00:38.915Z,68.06
2022-12-05T23:03:15.185Z,68.34
2022-12-05T23:05:48.408Z,68.84
2022-12-05T23:08:21.381Z,68.78
2022-12-05T23:10:58.463Z,68.72
2022-12-05T23:13:33.433Z,68.96
2022-12-05T23:16:08.284Z,68.13
2022-12-05T23:18:49.824Z,68.00
2022-12-05T23:21:24.543Z,67.75
2022-12-05T23:23:59.769Z,67.78
2022-12-05T23:26:35.526Z,67.99
2022-12-05T23:29:08.742Z,68.50
2022-12-05T23:31:42.206Z,68.54
2022-12-05T23:34:16.648Z,69.22
2022-12-05T23:36:49.591Z,68.90
2022-12-05T23:39:22.626Z,69.29
2022-12-05T23:41:55.707Z,68.95
2022-12-05T23:44:28.648Z,69.05
2022-12-05T23:47:01.968Z,69.06
2022-12-05T23:49:36.599Z,69.13
2022-12-05T23:52:11.152Z,69.39
2022-12-05T23:54:44.388Z,69.02
2022-12-05T23:57:17.994Z,68.50
2022-12-05T23:59:51.315Z,68.20
